sensor_id;sensor_type;location;lat;lon;timestamp;temperature;humidity
59309;DHT22;48433;53.016;-2.260;2022-08-19T00:01:56;18.10;99.90
59309;DHT22;48433;53.016;-2.260;2022-08-19T00:04:28;18.10;99.90
59309;DHT22;48433;53.016;-2.260;2022-08-19T00:06:57;18.00;99.90
59309;DHT22;48433;53.016;-2.260;2022-08-19T00:09:25;18.00;99.90
59309;DHT22;48433;53.016;-2.260;2022-08-19T00:11:54;18.00;99.90
59309;DHT22;48433;53.016;-2.260;2022-08-19T00:14:24;18.10;99.90
59309;DHT22;48433;53.016;-2.260;2022-08-19T00:16:52;18.10;99.90
59309;DHT22;48433;53.016;-2.260;2022-08-19T00:19:23;18.10;99.90
59309;DHT22;48433;53.016;-2.260;2022-08-19T00:21:51;18.10;99.90
59309;DHT22;48433;53.016;-2.260;2022-08-19T00:24:19;18.00;99.90
59309;DHT22;48433;53.016;-2.260;2022-08-19T00:26:47;18.00;99.90
59309;DHT22;48433;53.016;-2.260;2022-08-19T00:29:16;18.00;99.90
59309;DHT22;48433;53.016;-2.260;2022-08-19T00:31:45;18.00;99.90
59309;DHT22;48433;53.016;-2.260;2022-08-19T00:34:14;17.90;99.90
59309;DHT22;48433;53.016;-2.260;2022-08-19T00:36:42;17.90;99.90
59309;DHT22;48433;53.016;-2.260;2022-08-19T00:39:10;17.90;99.90
59309;DHT22;48433;53.016;-2.260;2022-08-19T00:41:40;17.80;99.90
59309;DHT22;48433;53.016;-2.260;2022-08-19T00:44:11;17.70;99.90
59309;DHT22;48433;53.016;-2.260;2022-08-19T00:46:42;17.50;99.90
59309;DHT22;48433;53.016;-2.260;2022-08-19T00:49:20;17.40;99.90
59309;DHT22;48433;53.016;-2.260;2022-08-19T00:51:57;17.30;99.90
59309;DHT22;48433;53.016;-2.260;2022-08-19T00:57:15;17.10;99.90
59309;DHT22;48433;53.016;-2.260;2022-08-19T00:59:47;17.00;99.90
59309;DHT22;48433;53.016;-2.260;2022-08-19T01:02:31;16.90;99.90
59309;DHT22;48433;53.016;-2.260;2022-08-19T01:05:02;16.80;99.90
59309;DHT22;48433;53.016;-2.260;2022-08-19T01:07:33;16.70;99.90
59309;DHT22;48433;53.016;-2.260;2022-08-19T01:10:11;16.70;99.90
59309;DHT22;48433;53.016;-2.260;2022-08-19T01:12:40;16.50;99.90
59309;DHT22;48433;53.016;-2.260;2022-08-19T01:15:10;17.30;99.90
59309;DHT22;48433;53.016;-2.260;2022-08-19T01:17:39;16.40;99.90
59309;DHT22;48433;53.016;-2.260;2022-08-19T01:20:14;16.30;99.90
59309;DHT22;48433;53.016;-2.260;2022-08-19T01:22:48;16.20;99.90
59309;DHT22;48433;53.016;-2.260;2022-08-19T01:25:19;16.20;99.90
59309;DHT22;48433;53.016;-2.260;2022-08-19T01:27:52;16.10;99.90
59309;DHT22;48433;53.016;-2.260;2022-08-19T01:30:24;16.00;99.90
59309;DHT22;48433;53.016;-2.260;2022-08-19T01:32:53;16.00;99.90
59309;DHT22;48433;53.016;-2.260;2022-08-19T01:35:22;16.00;99.90
59309;DHT22;48433;53.016;-2.260;2022-08-19T01:37:56;15.90;99.90
59309;DHT22;48433;53.016;-2.260;2022-08-19T01:40:27;15.90;99.90
59309;DHT22;48433;53.016;-2.260;2022-08-19T01:42:56;15.90;99.90
59309;DHT22;48433;53.016;-2.260;2022-08-19T01:45:26;15.80;99.90
59309;DHT22;48433;53.016;-2.260;2022-08-19T01:47:54;15.70;99.90
59309;DHT22;48433;53.016;-2.260;2022-08-19T01:50:31;15.60;99.90
59309;DHT22;48433;53.016;-2.260;2022-08-19T01:53:00;15.60;99.90
59309;DHT22;48433;53.016;-2.260;2022-08-19T01:55:36;15.50;99.90
59309;DHT22;48433;53.016;-2.260;2022-08-19T01:58:30;15.50;99.90
59309;DHT22;48433;53.016;-2.260;2022-08-19T02:00:59;15.50;99.90
59309;DHT22;48433;53.016;-2.260;2022-08-19T02:03:27;15.50;99.90
59309;DHT22;48433;53.016;-2.260;2022-08-19T02:06:00;15.50;99.90
59309;DHT22;48433;53.016;-2.260;2022-08-19T02:08:30;15.50;99.90
59309;DHT22;48433;53.016;-2.260;2022-08-19T02:10:58;15.50;99.90
59309;DHT22;48433;53.016;-2.260;2022-08-19T02:13:26;15.50;99.90
59309;DHT22;48433;53.016;-2.260;2022-08-19T02:15:54;15.50;99.90
59309;DHT22;48433;53.016;-2.260;2022-08-19T02:18:22;15.50;99.90
59309;DHT22;48433;53.016;-2.260;2022-08-19T02:20:54;15.50;99.90
59309;DHT22;48433;53.016;-2.260;2022-08-19T02:23:22;15.40;99.90
59309;DHT22;48433;53.016;-2.260;2022-08-19T02:25:52;15.40;99.90
59309;DHT22;48433;53.016;-2.260;2022-08-19T02:28:19;15.40;99.90
59309;DHT22;48433;53.016;-2.260;2022-08-19T02:30:48;15.50;99.90
59309;DHT22;48433;53.016;-2.260;2022-08-19T02:33:16;15.50;99.90
59309;DHT22;48433;53.016;-2.260;2022-08-19T02:35:45;15.50;99.90
59309;DHT22;48433;53.016;-2.260;2022-08-19T02:38:13;15.50;99.90
59309;DHT22;48433;53.016;-2.260;2022-08-19T02:43:24;15.60;99.90
59309;DHT22;48433;53.016;-2.260;2022-08-19T02:45:52;15.60;99.90
59309;DHT22;48433;53.016;-2.260;2022-08-19T02:48:22;15.50;99.90
59309;DHT22;48433;53.016;-2.260;2022-08-19T02:50:52;15.50;99.90
59309;DHT22;48433;53.016;-2.260;2022-08-19T02:53:25;15.50;99.90
59309;DHT22;48433;53.016;-2.260;2022-08-19T02:55:53;15.50;99.90
59309;DHT22;48433;53.016;-2.260;2022-08-19T02:58:21;15.50;99.90
59309;DHT22;48433;53.016;-2.260;2022-08-19T03:00:52;15.40;99.90
59309;DHT22;48433;53.016;-2.260;2022-08-19T03:03:20;15.30;99.90
59309;DHT22;48433;53.016;-2.260;2022-08-19T03:05:48;15.20;99.90
59309;DHT22;48433;53.016;-2.260;2022-08-19T03:08:24;15.10;99.90
59309;DHT22;48433;53.016;-2.260;2022-08-19T03:10:53;14.90;99.90
59309;DHT22;48433;53.016;-2.260;2022-08-19T03:13:21;14.80;99.90
59309;DHT22;48433;53.016;-2.260;2022-08-19T03:15:49;14.70;99.90
59309;DHT22;48433;53.016;-2.260;2022-08-19T03:18:17;14.60;99.90
59309;DHT22;48433;53.016;-2.260;2022-08-19T03:20:49;14.40;99.90
59309;DHT22;48433;53.016;-2.260;2022-08-19T03:23:17;14.30;99.90
59309;DHT22;48433;53.016;-2.260;2022-08-19T03:25:47;14.20;99.90
59309;DHT22;48433;53.016;-2.260;2022-08-19T03:28:34;14.10;99.90
59309;DHT22;48433;53.016;-2.260;2022-08-19T03:31:06;13.90;99.90
59309;DHT22;48433;53.016;-2.260;2022-08-19T03:33:54;13.80;99.90
59309;DHT22;48433;53.016;-2.260;2022-08-19T03:36:26;13.60;99.90
59309;DHT22;48433;53.016;-2.260;2022-08-19T03:38:58;13.50;99.90
59309;DHT22;48433;53.016;-2.260;2022-08-19T03:41:28;13.50;99.90
59309;DHT22;48433;53.016;-2.260;2022-08-19T03:44:15;13.40;99.90
59309;DHT22;48433;53.016;-2.260;2022-08-19T03:46:46;13.30;99.90
59309;DHT22;48433;53.016;-2.260;2022-08-19T03:49:15;13.20;99.90
59309;DHT22;48433;53.016;-2.260;2022-08-19T03:51:46;13.10;99.90
59309;DHT22;48433;53.016;-2.260;2022-08-19T03:54:17;13.00;99.90
59309;DHT22;48433;53.016;-2.260;2022-08-19T03:56:48;12.90;99.90
59309;DHT22;48433;53.016;-2.260;2022-08-19T03:59:19;12.80;99.90
59309;DHT22;48433;53.016;-2.260;2022-08-19T04:01:47;12.80;99.90
59309;DHT22;48433;53.016;-2.260;2022-08-19T04:04:15;12.70;99.90
59309;DHT22;48433;53.016;-2.260;2022-08-19T04:06:43;12.70;99.90
59309;DHT22;48433;53.016;-2.260;2022-08-19T04:09:11;12.70;99.90
59309;DHT22;48433;53.016;-2.260;2022-08-19T04:11:47;12.70;99.90
59309;DHT22;48433;53.016;-2.260;2022-08-19T04:14:18;12.70;99.90
59309;DHT22;48433;53.016;-2.260;2022-08-19T04:16:47;12.70;99.90
59309;DHT22;48433;53.016;-2.260;2022-08-19T04:19:16;12.60;99.90
59309;DHT22;48433;53.016;-2.260;2022-08-19T04:21:49;12.70;99.90
59309;DHT22;48433;53.016;-2.260;2022-08-19T04:24:18;12.70;99.90
59309;DHT22;48433;53.016;-2.260;2022-08-19T04:26:46;12.70;99.90
59309;DHT22;48433;53.016;-2.260;2022-08-19T04:29:17;12.70;99.90
59309;DHT22;48433;53.016;-2.260;2022-08-19T04:31:45;12.70;99.90
59309;DHT22;48433;53.016;-2.260;2022-08-19T04:34:16;12.60;99.90
59309;DHT22;48433;53.016;-2.260;2022-08-19T04:36:44;12.60;99.90
59309;DHT22;48433;53.016;-2.260;2022-08-19T04:39:15;12.50;99.90
59309;DHT22;48433;53.016;-2.260;2022-08-19T04:41:44;12.50;99.90
59309;DHT22;48433;53.016;-2.260;2022-08-19T04:44:32;12.50;99.90
59309;DHT22;48433;53.016;-2.260;2022-08-19T04:47:02;12.50;99.90
59309;DHT22;48433;53.016;-2.260;2022-08-19T04:49:37;12.50;99.90
59309;DHT22;48433;53.016;-2.260;2022-08-19T04:52:05;12.50;99.90
59309;DHT22;48433;53.016;-2.260;2022-08-19T04:54:33;12.50;99.90
59309;DHT22;48433;53.016;-2.260;2022-08-19T04:57:07;12.40;99.90
59309;DHT22;48433;53.016;-2.260;2022-08-19T04:59:37;12.50;99.90
59309;DHT22;48433;53.016;-2.260;2022-08-19T05:02:07;12.40;99.90
59309;DHT22;48433;53.016;-2.260;2022-08-19T05:04:36;12.50;99.90
59309;DHT22;48433;53.016;-2.260;2022-08-19T05:07:07;12.50;99.90
59309;DHT22;48433;53.016;-2.260;2022-08-19T05:09:36;12.50;99.90
59309;DHT22;48433;53.016;-2.260;2022-08-19T05:12:24;12.40;99.90
59309;DHT22;48433;53.016;-2.260;2022-08-19T05:14:56;12.30;99.90
59309;DHT22;48433;53.016;-2.260;2022-08-19T05:17:25;12.30;99.90
59309;DHT22;48433;53.016;-2.260;2022-08-19T05:19:56;12.30;99.90
59309;DHT22;48433;53.016;-2.260;2022-08-19T05:22:44;12.20;99.90
59309;DHT22;48433;53.016;-2.260;2022-08-19T05:25:15;12.20;99.90
59309;DHT22;48433;53.016;-2.260;2022-08-19T05:27:46;12.20;99.90
59309;DHT22;48433;53.016;-2.260;2022-08-19T05:30:16;12.20;99.90
59309;DHT22;48433;53.016;-2.260;2022-08-19T05:32:43;12.20;99.90
59309;DHT22;48433;53.016;-2.260;2022-08-19T05:35:11;12.20;99.90
59309;DHT22;48433;53.016;-2.260;2022-08-19T05:37:40;12.20;99.90
59309;DHT22;48433;53.016;-2.260;2022-08-19T05:40:09;12.20;99.90
59309;DHT22;48433;53.016;-2.260;2022-08-19T05:42:37;12.20;99.90
59309;DHT22;48433;53.016;-2.260;2022-08-19T05:45:06;12.20;99.90
59309;DHT22;48433;53.016;-2.260;2022-08-19T05:47:33;12.20;99.90
59309;DHT22;48433;53.016;-2.260;2022-08-19T05:50:08;12.10;99.90
59309;DHT22;48433;53.016;-2.260;2022-08-19T05:52:37;12.10;99.90
59309;DHT22;48433;53.016;-2.260;2022-08-19T05:55:10;12.10;99.90
59309;DHT22;48433;53.016;-2.260;2022-08-19T05:57:39;12.10;99.90
59309;DHT22;48433;53.016;-2.260;2022-08-19T06:00:07;12.10;99.90
59309;DHT22;48433;53.016;-2.260;2022-08-19T06:02:38;12.10;99.90
59309;DHT22;48433;53.016;-2.260;2022-08-19T06:05:07;12.20;99.90
59309;DHT22;48433;53.016;-2.260;2022-08-19T06:07:38;12.20;99.90
59309;DHT22;48433;53.016;-2.260;2022-08-19T06:10:08;12.30;99.90
59309;DHT22;48433;53.016;-2.260;2022-08-19T06:12:37;12.40;99.90
59309;DHT22;48433;53.016;-2.260;2022-08-19T06:15:11;12.40;99.90
59309;DHT22;48433;53.016;-2.260;2022-08-19T06:17:39;12.60;99.90
59309;DHT22;48433;53.016;-2.260;2022-08-19T06:20:12;12.70;99.90
59309;DHT22;48433;53.016;-2.260;2022-08-19T06:22:43;12.80;99.90
59309;DHT22;48433;53.016;-2.260;2022-08-19T06:25:31;12.90;99.90
59309;DHT22;48433;53.016;-2.260;2022-08-19T06:27:59;13.10;99.90
59309;DHT22;48433;53.016;-2.260;2022-08-19T06:30:42;13.20;99.90
59309;DHT22;48433;53.016;-2.260;2022-08-19T06:33:09;13.30;99.90
59309;DHT22;48433;53.016;-2.260;2022-08-19T06:35:41;13.40;99.90
59309;DHT22;48433;53.016;-2.260;2022-08-19T06:38:08;13.50;99.90
59309;DHT22;48433;53.016;-2.260;2022-08-19T06:40:36;13.50;99.90
59309;DHT22;48433;53.016;-2.260;2022-08-19T06:43:05;13.60;99.90
59309;DHT22;48433;53.016;-2.260;2022-08-19T06:45:37;13.70;99.90
59309;DHT22;48433;53.016;-2.260;2022-08-19T06:48:06;13.80;99.90
59309;DHT22;48433;53.016;-2.260;2022-08-19T06:50:34;13.90;99.90
59309;DHT22;48433;53.016;-2.260;2022-08-19T06:53:06;14.00;99.90
59309;DHT22;48433;53.016;-2.260;2022-08-19T06:55:33;14.10;99.90
59309;DHT22;48433;53.016;-2.260;2022-08-19T06:58:03;14.20;99.90
59309;DHT22;48433;53.016;-2.260;2022-08-19T07:00:32;14.20;99.90
59309;DHT22;48433;53.016;-2.260;2022-08-19T07:02:59;14.30;99.90
59309;DHT22;48433;53.016;-2.260;2022-08-19T07:05:39;14.40;99.90
59309;DHT22;48433;53.016;-2.260;2022-08-19T07:08:12;14.50;99.90
59309;DHT22;48433;53.016;-2.260;2022-08-19T07:10:43;14.60;99.90
59309;DHT22;48433;53.016;-2.260;2022-08-19T07:13:12;14.70;99.90
59309;DHT22;48433;53.016;-2.260;2022-08-19T07:15:40;14.80;99.90
59309;DHT22;48433;53.016;-2.260;2022-08-19T07:18:09;14.90;99.90
59309;DHT22;48433;53.016;-2.260;2022-08-19T07:20:39;14.90;99.90
59309;DHT22;48433;53.016;-2.260;2022-08-19T07:23:09;15.10;99.90
59309;DHT22;48433;53.016;-2.260;2022-08-19T07:25:42;15.10;99.90
59309;DHT22;48433;53.016;-2.260;2022-08-19T07:28:10;15.40;99.90
59309;DHT22;48433;53.016;-2.260;2022-08-19T07:30:51;15.50;99.90
59309;DHT22;48433;53.016;-2.260;2022-08-19T07:33:19;15.70;99.90
59309;DHT22;48433;53.016;-2.260;2022-08-19T07:35:48;15.70;99.90
59309;DHT22;48433;53.016;-2.260;2022-08-19T07:38:17;15.80;99.90
59309;DHT22;48433;53.016;-2.260;2022-08-19T07:40:45;15.90;99.90
59309;DHT22;48433;53.016;-2.260;2022-08-19T07:43:13;15.90;99.90
59309;DHT22;48433;53.016;-2.260;2022-08-19T07:45:44;16.00;99.90
59309;DHT22;48433;53.016;-2.260;2022-08-19T07:48:12;16.10;99.90
59309;DHT22;48433;53.016;-2.260;2022-08-19T07:50:41;16.20;99.90
59309;DHT22;48433;53.016;-2.260;2022-08-19T07:53:09;16.30;99.90
59309;DHT22;48433;53.016;-2.260;2022-08-19T07:55:37;16.40;99.90
59309;DHT22;48433;53.016;-2.260;2022-08-19T07:58:12;16.50;99.90
59309;DHT22;48433;53.016;-2.260;2022-08-19T08:00:41;16.70;99.90
59309;DHT22;48433;53.016;-2.260;2022-08-19T08:03:09;16.90;99.90
59309;DHT22;48433;53.016;-2.260;2022-08-19T08:05:37;17.00;99.90
59309;DHT22;48433;53.016;-2.260;2022-08-19T08:08:23;17.10;99.90
59309;DHT22;48433;53.016;-2.260;2022-08-19T08:11:18;17.30;99.90
59309;DHT22;48433;53.016;-2.260;2022-08-19T08:13:48;17.50;99.90
59309;DHT22;48433;53.016;-2.260;2022-08-19T08:16:36;17.60;99.90
59309;DHT22;48433;53.016;-2.260;2022-08-19T08:19:06;17.60;99.90
59309;DHT22;48433;53.016;-2.260;2022-08-19T08:21:56;17.60;99.90
59309;DHT22;48433;53.016;-2.260;2022-08-19T08:24:26;17.70;99.90
59309;DHT22;48433;53.016;-2.260;2022-08-19T08:26:55;17.70;99.80
59309;DHT22;48433;53.016;-2.260;2022-08-19T08:29:29;17.70;99.10
59309;DHT22;48433;53.016;-2.260;2022-08-19T08:32:01;17.70;98.70
59309;DHT22;48433;53.016;-2.260;2022-08-19T08:34:29;17.80;98.30
59309;DHT22;48433;53.016;-2.260;2022-08-19T08:36:57;17.80;97.70
59309;DHT22;48433;53.016;-2.260;2022-08-19T08:39:25;17.90;98.20
59309;DHT22;48433;53.016;-2.260;2022-08-19T08:42:24;18.00;97.30
59309;DHT22;48433;53.016;-2.260;2022-08-19T08:47:30;18.30;97.00
59309;DHT22;48433;53.016;-2.260;2022-08-19T08:50:05;18.40;97.00
59309;DHT22;48433;53.016;-2.260;2022-08-19T08:52:37;18.70;96.50
59309;DHT22;48433;53.016;-2.260;2022-08-19T08:55:12;18.90;95.10
59309;DHT22;48433;53.016;-2.260;2022-08-19T09:00:26;19.00;91.70
59309;DHT22;48433;53.016;-2.260;2022-08-19T09:02:55;19.00;92.50
59309;DHT22;48433;53.016;-2.260;2022-08-19T09:06:14;19.00;92.30
59309;DHT22;48433;53.016;-2.260;2022-08-19T09:08:33;19.00;92.30
59309;DHT22;48433;53.016;-2.260;2022-08-19T09:11:08;18.90;92.60
59309;DHT22;48433;53.016;-2.260;2022-08-19T09:16:21;18.80;91.60
59309;DHT22;48433;53.016;-2.260;2022-08-19T09:18:58;19.00;91.90
59309;DHT22;48433;53.016;-2.260;2022-08-19T09:21:29;19.30;91.20
59309;DHT22;48433;53.016;-2.260;2022-08-19T09:24:01;19.50;91.00
59309;DHT22;48433;53.016;-2.260;2022-08-19T09:26:30;19.50;91.00
59309;DHT22;48433;53.016;-2.260;2022-08-19T09:29:14;19.60;90.80
59309;DHT22;48433;53.016;-2.260;2022-08-19T09:31:43;19.80;89.60
59309;DHT22;48433;53.016;-2.260;2022-08-19T09:34:11;19.70;88.10
59309;DHT22;48433;53.016;-2.260;2022-08-19T09:36:49;19.50;87.20
59309;DHT22;48433;53.016;-2.260;2022-08-19T09:39:21;19.50;88.30
59309;DHT22;48433;53.016;-2.260;2022-08-19T09:41:49;19.30;89.20
59309;DHT22;48433;53.016;-2.260;2022-08-19T09:44:18;19.30;90.10
59309;DHT22;48433;53.016;-2.260;2022-08-19T09:46:48;19.60;90.20
59309;DHT22;48433;53.016;-2.260;2022-08-19T09:49:18;19.70;89.10
59309;DHT22;48433;53.016;-2.260;2022-08-19T09:51:52;19.70;88.80
59309;DHT22;48433;53.016;-2.260;2022-08-19T09:54:23;19.90;88.50
59309;DHT22;48433;53.016;-2.260;2022-08-19T09:56:52;20.20;86.10
59309;DHT22;48433;53.016;-2.260;2022-08-19T09:59:21;20.30;84.10
59309;DHT22;48433;53.016;-2.260;2022-08-19T10:01:48;20.60;84.00
59309;DHT22;48433;53.016;-2.260;2022-08-19T10:04:16;20.90;84.80
59309;DHT22;48433;53.016;-2.260;2022-08-19T10:06:48;21.20;82.70
59309;DHT22;48433;53.016;-2.260;2022-08-19T10:09:20;21.40;81.90
59309;DHT22;48433;53.016;-2.260;2022-08-19T10:12:02;21.60;80.60
59309;DHT22;48433;53.016;-2.260;2022-08-19T10:14:30;21.60;79.30
59309;DHT22;48433;53.016;-2.260;2022-08-19T10:16:58;21.40;78.40
59309;DHT22;48433;53.016;-2.260;2022-08-19T10:19:44;21.30;77.10
59309;DHT22;48433;53.016;-2.260;2022-08-19T10:22:22;21.10;78.60
59309;DHT22;48433;53.016;-2.260;2022-08-19T10:24:52;20.90;78.60
59309;DHT22;48433;53.016;-2.260;2022-08-19T10:27:20;20.60;79.90
59309;DHT22;48433;53.016;-2.260;2022-08-19T10:29:48;20.40;81.50
59309;DHT22;48433;53.016;-2.260;2022-08-19T10:32:16;20.20;83.40
59309;DHT22;48433;53.016;-2.260;2022-08-19T10:34:44;19.90;85.10
59309;DHT22;48433;53.016;-2.260;2022-08-19T10:37:15;19.80;84.60
59309;DHT22;48433;53.016;-2.260;2022-08-19T10:39:50;19.80;84.20
59309;DHT22;48433;53.016;-2.260;2022-08-19T10:42:19;20.00;85.60
59309;DHT22;48433;53.016;-2.260;2022-08-19T10:44:46;20.50;84.90
59309;DHT22;48433;53.016;-2.260;2022-08-19T10:47:14;20.90;82.50
59309;DHT22;48433;53.016;-2.260;2022-08-19T10:49:57;21.10;80.80
59309;DHT22;48433;53.016;-2.260;2022-08-19T10:52:46;21.20;77.90
59309;DHT22;48433;53.016;-2.260;2022-08-19T10:55:22;21.20;78.20
59309;DHT22;48433;53.016;-2.260;2022-08-19T10:58:25;21.80;78.00
59309;DHT22;48433;53.016;-2.260;2022-08-19T11:00:58;22.80;73.50
59309;DHT22;48433;53.016;-2.260;2022-08-19T11:03:26;23.50;72.40
59309;DHT22;48433;53.016;-2.260;2022-08-19T11:05:58;24.00;68.60
59309;DHT22;48433;53.016;-2.260;2022-08-19T11:08:26;23.90;67.50
59309;DHT22;48433;53.016;-2.260;2022-08-19T11:10:54;23.70;68.10
59309;DHT22;48433;53.016;-2.260;2022-08-19T11:13:24;23.30;70.10
59309;DHT22;48433;53.016;-2.260;2022-08-19T11:16:16;23.00;70.60
59309;DHT22;48433;53.016;-2.260;2022-08-19T11:18:49;22.70;71.00
59309;DHT22;48433;53.016;-2.260;2022-08-19T11:21:23;22.70;71.60
59309;DHT22;48433;53.016;-2.260;2022-08-19T11:23:54;22.30;71.60
59309;DHT22;48433;53.016;-2.260;2022-08-19T11:26:23;22.30;72.70
59309;DHT22;48433;53.016;-2.260;2022-08-19T11:28:52;22.30;73.30
59309;DHT22;48433;53.016;-2.260;2022-08-19T11:31:24;22.50;73.50
59309;DHT22;48433;53.016;-2.260;2022-08-19T11:33:56;22.60;71.20
59309;DHT22;48433;53.016;-2.260;2022-08-19T11:36:24;22.70;70.90
59309;DHT22;48433;53.016;-2.260;2022-08-19T11:38:52;23.00;68.70
59309;DHT22;48433;53.016;-2.260;2022-08-19T11:41:21;23.40;66.50
59309;DHT22;48433;53.016;-2.260;2022-08-19T11:43:54;23.50;66.00
59309;DHT22;48433;53.016;-2.260;2022-08-19T11:46:24;23.40;65.10
59309;DHT22;48433;53.016;-2.260;2022-08-19T11:48:52;23.10;63.80
59309;DHT22;48433;53.016;-2.260;2022-08-19T11:51:23;22.80;62.80
59309;DHT22;48433;53.016;-2.260;2022-08-19T11:53:55;22.50;61.30
59309;DHT22;48433;53.016;-2.260;2022-08-19T11:56:24;22.50;62.20
59309;DHT22;48433;53.016;-2.260;2022-08-19T11:58:53;22.80;63.10
59309;DHT22;48433;53.016;-2.260;2022-08-19T12:01:23;22.90;61.70
59309;DHT22;48433;53.016;-2.260;2022-08-19T12:03:53;22.80;61.80
59309;DHT22;48433;53.016;-2.260;2022-08-19T12:06:32;22.60;63.20
59309;DHT22;48433;53.016;-2.260;2022-08-19T12:09:04;22.40;62.00
59309;DHT22;48433;53.016;-2.260;2022-08-19T12:11:33;22.40;62.70
59309;DHT22;48433;53.016;-2.260;2022-08-19T12:14:01;22.50;62.80
59309;DHT22;48433;53.016;-2.260;2022-08-19T12:16:30;22.60;62.20
59309;DHT22;48433;53.016;-2.260;2022-08-19T12:19:00;22.80;61.80
59309;DHT22;48433;53.016;-2.260;2022-08-19T12:21:33;23.10;61.50
59309;DHT22;48433;53.016;-2.260;2022-08-19T12:24:03;23.10;59.50
59309;DHT22;48433;53.016;-2.260;2022-08-19T12:26:34;23.00;59.30
59309;DHT22;48433;53.016;-2.260;2022-08-19T12:29:20;22.80;59.80
59309;DHT22;48433;53.016;-2.260;2022-08-19T12:31:51;22.60;60.80
59309;DHT22;48433;53.016;-2.260;2022-08-19T12:34:18;22.50;62.30
59309;DHT22;48433;53.016;-2.260;2022-08-19T12:36:47;22.50;62.70
59309;DHT22;48433;53.016;-2.260;2022-08-19T12:39:17;22.40;61.50
59309;DHT22;48433;53.016;-2.260;2022-08-19T12:41:44;22.10;61.50
59309;DHT22;48433;53.016;-2.260;2022-08-19T12:44:22;21.80;63.10
59309;DHT22;48433;53.016;-2.260;2022-08-19T12:46:56;21.60;64.20
59309;DHT22;48433;53.016;-2.260;2022-08-19T12:49:24;21.60;65.20
59309;DHT22;48433;53.016;-2.260;2022-08-19T12:52:12;21.70;64.90
59309;DHT22;48433;53.016;-2.260;2022-08-19T12:54:47;21.60;64.90
59309;DHT22;48433;53.016;-2.260;2022-08-19T12:57:22;21.50;65.40
59309;DHT22;48433;53.016;-2.260;2022-08-19T13:00:25;21.50;65.40
59309;DHT22;48433;53.016;-2.260;2022-08-19T13:02:53;21.50;66.20
59309;DHT22;48433;53.016;-2.260;2022-08-19T13:05:27;21.60;65.70
59309;DHT22;48433;53.016;-2.260;2022-08-19T13:07:57;21.70;66.30
59309;DHT22;48433;53.016;-2.260;2022-08-19T13:10:28;21.80;65.80
59309;DHT22;48433;53.016;-2.260;2022-08-19T13:12:56;22.00;65.40
59309;DHT22;48433;53.016;-2.260;2022-08-19T13:15:26;22.60;64.80
59309;DHT22;48433;53.016;-2.260;2022-08-19T13:17:55;23.50;61.90
59309;DHT22;48433;53.016;-2.260;2022-08-19T13:20:24;24.40;58.40
59309;DHT22;48433;53.016;-2.260;2022-08-19T13:22:52;25.20;57.00
59309;DHT22;48433;53.016;-2.260;2022-08-19T13:25:21;26.00;54.40
59309;DHT22;48433;53.016;-2.260;2022-08-19T13:27:49;26.10;48.90
59309;DHT22;48433;53.016;-2.260;2022-08-19T13:30:19;25.60;48.40
59309;DHT22;48433;53.016;-2.260;2022-08-19T13:33:06;25.00;49.30
59309;DHT22;48433;53.016;-2.260;2022-08-19T13:35:56;24.60;50.10
59309;DHT22;48433;53.016;-2.260;2022-08-19T13:38:24;24.90;50.40
59309;DHT22;48433;53.016;-2.260;2022-08-19T13:40:53;25.50;48.50
59309;DHT22;48433;53.016;-2.260;2022-08-19T13:43:23;25.80;48.20
59309;DHT22;48433;53.016;-2.260;2022-08-19T13:45:53;25.70;47.30
59309;DHT22;48433;53.016;-2.260;2022-08-19T13:48:24;25.50;48.00
59309;DHT22;48433;53.016;-2.260;2022-08-19T13:50:52;25.40;48.20
59309;DHT22;48433;53.016;-2.260;2022-08-19T13:53:22;25.50;48.00
59309;DHT22;48433;53.016;-2.260;2022-08-19T13:55:53;25.90;47.70
59309;DHT22;48433;53.016;-2.260;2022-08-19T13:58:21;26.60;47.00
59309;DHT22;48433;53.016;-2.260;2022-08-19T14:00:49;27.20;44.60
59309;DHT22;48433;53.016;-2.260;2022-08-19T14:03:17;26.70;43.70
59309;DHT22;48433;53.016;-2.260;2022-08-19T14:05:45;25.90;44.00
59309;DHT22;48433;53.016;-2.260;2022-08-19T14:08:14;25.00;45.40
59309;DHT22;48433;53.016;-2.260;2022-08-19T14:10:42;24.30;47.00
59309;DHT22;48433;53.016;-2.260;2022-08-19T14:13:14;23.80;48.50
59309;DHT22;48433;53.016;-2.260;2022-08-19T14:15:41;23.40;49.50
59309;DHT22;48433;53.016;-2.260;2022-08-19T14:18:09;23.00;50.10
59309;DHT22;48433;53.016;-2.260;2022-08-19T14:20:37;22.80;51.10
59309;DHT22;48433;53.016;-2.260;2022-08-19T14:23:05;22.70;50.90
59309;DHT22;48433;53.016;-2.260;2022-08-19T14:25:33;22.60;51.30
59309;DHT22;48433;53.016;-2.260;2022-08-19T14:28:01;22.50;51.90
59309;DHT22;48433;53.016;-2.260;2022-08-19T14:30:31;22.60;52.10
59309;DHT22;48433;53.016;-2.260;2022-08-19T14:33:00;22.90;52.10
59309;DHT22;48433;53.016;-2.260;2022-08-19T14:35:30;23.80;51.10
59309;DHT22;48433;53.016;-2.260;2022-08-19T14:38:06;24.60;48.90
59309;DHT22;48433;53.016;-2.260;2022-08-19T14:40:33;25.00;48.00
59309;DHT22;48433;53.016;-2.260;2022-08-19T14:43:03;25.00;47.50
59309;DHT22;48433;53.016;-2.260;2022-08-19T14:45:34;25.00;48.30
59309;DHT22;48433;53.016;-2.260;2022-08-19T14:48:04;25.00;48.10
59309;DHT22;48433;53.016;-2.260;2022-08-19T14:50:33;24.70;48.10
59309;DHT22;48433;53.016;-2.260;2022-08-19T14:53:03;24.20;48.70
59309;DHT22;48433;53.016;-2.260;2022-08-19T14:55:44;24.00;49.70
59309;DHT22;48433;53.016;-2.260;2022-08-19T14:58:12;23.90;49.90
59309;DHT22;48433;53.016;-2.260;2022-08-19T15:00:58;24.20;50.00
59309;DHT22;48433;53.016;-2.260;2022-08-19T15:03:27;24.80;48.50
59309;DHT22;48433;53.016;-2.260;2022-08-19T15:05:56;25.50;47.30
59309;DHT22;48433;53.016;-2.260;2022-08-19T15:08:25;26.00;46.20
59309;DHT22;48433;53.016;-2.260;2022-08-19T15:11:14;25.70;44.90
59309;DHT22;48433;53.016;-2.260;2022-08-19T15:13:43;25.30;45.70
59309;DHT22;48433;53.016;-2.260;2022-08-19T15:16:12;25.00;46.20
59309;DHT22;48433;53.016;-2.260;2022-08-19T15:18:45;25.00;47.40
59309;DHT22;48433;53.016;-2.260;2022-08-19T15:21:14;25.30;47.00
59309;DHT22;48433;53.016;-2.260;2022-08-19T15:23:56;25.70;46.60
59309;DHT22;48433;53.016;-2.260;2022-08-19T15:26:24;26.20;46.00
59309;DHT22;48433;53.016;-2.260;2022-08-19T15:29:25;26.00;45.70
59309;DHT22;48433;53.016;-2.260;2022-08-19T15:31:53;25.70;46.70
59309;DHT22;48433;53.016;-2.260;2022-08-19T15:34:25;25.90;46.10
59309;DHT22;48433;53.016;-2.260;2022-08-19T15:36:52;25.70;46.10
59309;DHT22;48433;53.016;-2.260;2022-08-19T15:39:20;25.50;47.10
59309;DHT22;48433;53.016;-2.260;2022-08-19T15:41:48;25.70;47.40
59309;DHT22;48433;53.016;-2.260;2022-08-19T15:44:18;25.50;47.00
59309;DHT22;48433;53.016;-2.260;2022-08-19T15:46:48;25.00;47.30
59309;DHT22;48433;53.016;-2.260;2022-08-19T15:49:18;24.50;48.30
59309;DHT22;48433;53.016;-2.260;2022-08-19T15:51:47;24.00;49.20
59309;DHT22;48433;53.016;-2.260;2022-08-19T15:54:18;23.50;50.50
59309;DHT22;48433;53.016;-2.260;2022-08-19T15:56:49;23.00;51.60